sensor_id;sensor_type;location;lat;lon;timestamp;P1;durP1;ratioP1;P2;durP2;ratioP2
22441;SDS011;11388;54.456;9.752;2022-07-05T10:05:35;2.90;;;0.63;;
22441;SDS011;11388;54.456;9.752;2022-07-05T10:08:07;3.97;;;0.60;;
22441;SDS011;11388;54.456;9.752;2022-07-05T10:13:13;2.38;;;0.57;;
22441;SDS011;11388;54.456;9.752;2022-07-05T10:15:47;3.78;;;0.70;;
22441;SDS011;11388;54.456;9.752;2022-07-05T10:20:59;3.42;;;0.63;;
22441;SDS011;11388;54.456;9.752;2022-07-05T10:23:32;6.43;;;0.77;;
22441;SDS011;11388;54.456;9.752;2022-07-05T10:26:05;5.68;;;0.80;;
22441;SDS011;11388;54.456;9.752;2022-07-05T10:28:39;4.53;;;0.80;;
22441;SDS011;11388;54.456;9.752;2022-07-05T10:31:08;3.55;;;0.63;;
22441;SDS011;11388;54.456;9.752;2022-07-05T10:33:45;3.22;;;0.60;;
22441;SDS011;11388;54.456;9.752;2022-07-05T10:36:39;4.30;;;0.75;;
22441;SDS011;11388;54.456;9.752;2022-07-05T10:39:08;3.67;;;0.70;;
22441;SDS011;11388;54.456;9.752;2022-07-05T10:41:47;4.57;;;0.50;;
22441;SDS011;11388;54.456;9.752;2022-07-05T10:44:29;3.05;;;0.57;;
22441;SDS011;11388;54.456;9.752;2022-07-05T10:47:10;5.78;;;0.60;;
22441;SDS011;11388;54.456;9.752;2022-07-05T10:49:37;3.13;;;0.80;;
22441;SDS011;11388;54.456;9.752;2022-07-05T10:52:04;2.67;;;0.50;;
22441;SDS011;11388;54.456;9.752;2022-07-05T11:06:51;3.80;;;0.60;;
22441;SDS011;11388;54.456;9.752;2022-07-05T11:09:20;2.72;;;0.40;;
22441;SDS011;11388;54.456;9.752;2022-07-05T11:22:22;1.55;;;0.47;;
22441;SDS011;11388;54.456;9.752;2022-07-05T11:25:19;4.03;;;0.63;;
22441;SDS011;11388;54.456;9.752;2022-07-05T11:28:22;4.22;;;0.65;;
22441;SDS011;11388;54.456;9.752;2022-07-05T11:34:40;3.35;;;0.60;;
22441;SDS011;11388;54.456;9.752;2022-07-05T11:41:01;1.95;;;0.60;;
22441;SDS011;11388;54.456;9.752;2022-07-05T11:43:40;1.60;;;0.50;;
22441;SDS011;11388;54.456;9.752;2022-07-05T11:46:46;2.50;;;0.63;;
22441;SDS011;11388;54.456;9.752;2022-07-05T12:05:57;2.70;;;0.50;;
22441;SDS011;11388;54.456;9.752;2022-07-05T13:49:54;2.30;;;0.40;;
22441;SDS011;11388;54.456;9.752;2022-07-05T13:52:40;2.30;;;0.65;;
22441;SDS011;11388;54.456;9.752;2022-07-05T13:55:07;2.08;;;0.47;;
22441;SDS011;11388;54.456;9.752;2022-07-05T13:57:38;3.65;;;0.60;;
22441;SDS011;11388;54.456;9.752;2022-07-05T14:00:11;3.45;;;0.60;;
22441;SDS011;11388;54.456;9.752;2022-07-05T14:02:48;2.17;;;0.50;;
22441;SDS011;11388;54.456;9.752;2022-07-05T14:05:14;3.88;;;0.70;;
22441;SDS011;11388;54.456;9.752;2022-07-05T14:07:43;2.50;;;0.47;;
22441;SDS011;11388;54.456;9.752;2022-07-05T14:10:09;2.63;;;0.55;;
22441;SDS011;11388;54.456;9.752;2022-07-05T14:12:42;2.92;;;0.60;;
22441;SDS011;11388;54.456;9.752;2022-07-05T14:15:08;2.85;;;0.60;;
22441;SDS011;11388;54.456;9.752;2022-07-05T14:17:34;3.38;;;0.60;;
22441;SDS011;11388;54.456;9.752;2022-07-05T14:20:00;2.45;;;0.60;;
22441;SDS011;11388;54.456;9.752;2022-07-05T14:22:26;3.33;;;0.60;;
22441;SDS011;11388;54.456;9.752;2022-07-05T14:24:52;2.88;;;0.60;;
22441;SDS011;11388;54.456;9.752;2022-07-05T14:27:18;2.13;;;0.57;;
22441;SDS011;11388;54.456;9.752;2022-07-05T14:29:46;4.32;;;0.77;;
22441;SDS011;11388;54.456;9.752;2022-07-05T14:32:12;2.60;;;0.70;;
22441;SDS011;11388;54.456;9.752;2022-07-05T14:34:40;2.97;;;0.80;;
22441;SDS011;11388;54.456;9.752;2022-07-05T14:37:06;3.03;;;0.80;;
22441;SDS011;11388;54.456;9.752;2022-07-05T14:39:33;4.45;;;0.82;;
22441;SDS011;11388;54.456;9.752;2022-07-05T14:42:03;2.83;;;0.60;;
22441;SDS011;11388;54.456;9.752;2022-07-05T14:44:30;2.60;;;0.70;;
22441;SDS011;11388;54.456;9.752;2022-07-05T14:46:58;2.78;;;0.65;;
22441;SDS011;11388;54.456;9.752;2022-07-05T14:49:24;2.47;;;0.50;;
22441;SDS011;11388;54.456;9.752;2022-07-05T14:51:55;5.60;;;0.80;;
22441;SDS011;11388;54.456;9.752;2022-07-05T14:54:21;2.88;;;0.60;;
22441;SDS011;11388;54.456;9.752;2022-07-05T14:56:47;3.03;;;0.60;;
22441;SDS011;11388;54.456;9.752;2022-07-05T14:59:13;2.40;;;0.52;;
22441;SDS011;11388;54.456;9.752;2022-07-05T15:01:51;4.28;;;0.70;;
22441;SDS011;11388;54.456;9.752;2022-07-05T15:04:17;2.95;;;0.70;;
22441;SDS011;11388;54.456;9.752;2022-07-05T15:06:43;2.35;;;0.63;;
22441;SDS011;11388;54.456;9.752;2022-07-05T15:09:09;3.38;;;0.60;;
22441;SDS011;11388;54.456;9.752;2022-07-05T15:24:13;4.35;;;1.25;;
22441;SDS011;11388;54.456;9.752;2022-07-05T15:27:10;6.05;;;0.90;;
22441;SDS011;11388;54.456;9.752;2022-07-05T15:29:57;2.22;;;0.80;;
22441;SDS011;11388;54.456;9.752;2022-07-05T15:32:30;5.05;;;1.38;;
22441;SDS011;11388;54.456;9.752;2022-07-05T15:34:58;4.97;;;1.20;;
22441;SDS011;11388;54.456;9.752;2022-07-05T15:37:23;3.85;;;0.77;;
22441;SDS011;11388;54.456;9.752;2022-07-05T15:39:49;6.22;;;0.80;;
22441;SDS011;11388;54.456;9.752;2022-07-05T15:42:15;4.40;;;1.15;;
22441;SDS011;11388;54.456;9.752;2022-07-05T15:44:44;4.82;;;0.80;;
22441;SDS011;11388;54.456;9.752;2022-07-05T15:47:15;4.05;;;0.80;;
22441;SDS011;11388;54.456;9.752;2022-07-05T15:49:41;3.33;;;0.70;;
22441;SDS011;11388;54.456;9.752;2022-07-05T15:52:07;4.97;;;0.80;;
22441;SDS011;11388;54.456;9.752;2022-07-05T15:54:33;3.58;;;0.70;;
22441;SDS011;11388;54.456;9.752;2022-07-05T15:57:00;3.47;;;0.70;;
22441;SDS011;11388;54.456;9.752;2022-07-05T17:08:14;4.15;;;0.90;;
22441;SDS011;11388;54.456;9.752;2022-07-05T17:10:40;6.65;;;0.90;;
22441;SDS011;11388;54.456;9.752;2022-07-05T17:13:15;5.93;;;1.20;;
22441;SDS011;11388;54.456;9.752;2022-07-05T17:15:52;5.97;;;0.88;;
22441;SDS011;11388;54.456;9.752;2022-07-05T17:18:35;3.42;;;0.60;;
22441;SDS011;11388;54.456;9.752;2022-07-05T17:21:06;2.60;;;0.55;;
22441;SDS011;11388;54.456;9.752;2022-07-05T17:23:45;3.92;;;0.80;;
22441;SDS011;11388;54.456;9.752;2022-07-05T17:26:18;4.05;;;0.75;;
22441;SDS011;11388;54.456;9.752;2022-07-05T17:32:22;3.67;;;0.73;;
22441;SDS011;11388;54.456;9.752;2022-07-05T17:44:38;4.50;;;0.80;;
22441;SDS011;11388;54.456;9.752;2022-07-05T17:47:25;3.83;;;0.60;;
22441;SDS011;11388;54.456;9.752;2022-07-05T17:50:19;3.40;;;0.73;;
22441;SDS011;11388;54.456;9.752;2022-07-05T17:53:07;4.55;;;0.80;;
22441;SDS011;11388;54.456;9.752;2022-07-05T17:55:45;7.60;;;0.93;;
22441;SDS011;11388;54.456;9.752;2022-07-05T18:01:30;3.25;;;0.77;;
22441;SDS011;11388;54.456;9.752;2022-07-05T18:06:30;3.17;;;0.82;;
22441;SDS011;11388;54.456;9.752;2022-07-05T18:08:56;3.17;;;0.80;;
22441;SDS011;11388;54.456;9.752;2022-07-05T18:11:22;2.15;;;0.50;;
22441;SDS011;11388;54.456;9.752;2022-07-05T18:13:48;4.88;;;0.85;;
22441;SDS011;11388;54.456;9.752;2022-07-05T18:16:14;3.20;;;0.75;;
22441;SDS011;11388;54.456;9.752;2022-07-05T18:18:41;3.70;;;0.80;;
22441;SDS011;11388;54.456;9.752;2022-07-05T18:21:07;3.10;;;0.93;;
22441;SDS011;11388;54.456;9.752;2022-07-05T18:23:33;3.85;;;1.00;;
22441;SDS011;11388;54.456;9.752;2022-07-05T18:26:05;4.97;;;0.77;;
22441;SDS011;11388;54.456;9.752;2022-07-05T18:28:52;5.05;;;0.80;;
22441;SDS011;11388;54.456;9.752;2022-07-05T18:31:19;3.40;;;1.08;;
22441;SDS011;11388;54.456;9.752;2022-07-05T18:39:07;4.47;;;0.90;;
22441;SDS011;11388;54.456;9.752;2022-07-05T18:41:35;3.28;;;0.90;;
22441;SDS011;11388;54.456;9.752;2022-07-05T18:44:04;4.85;;;0.93;;
22441;SDS011;11388;54.456;9.752;2022-07-05T18:46:31;3.25;;;0.70;;
22441;SDS011;11388;54.456;9.752;2022-07-05T18:51:50;4.63;;;0.93;;
22441;SDS011;11388;54.456;9.752;2022-07-05T18:54:24;3.65;;;1.02;;
22441;SDS011;11388;54.456;9.752;2022-07-05T18:59:34;4.63;;;1.27;;
22441;SDS011;11388;54.456;9.752;2022-07-05T19:12:37;5.93;;;0.95;;
22441;SDS011;11388;54.456;9.752;2022-07-05T19:15:21;5.28;;;1.13;;
22441;SDS011;11388;54.456;9.752;2022-07-05T19:17:48;5.07;;;1.20;;
22441;SDS011;11388;54.456;9.752;2022-07-05T19:20:22;3.53;;;1.00;;
22441;SDS011;11388;54.456;9.752;2022-07-05T19:22:50;3.95;;;0.73;;
22441;SDS011;11388;54.456;9.752;2022-07-05T19:25:18;3.90;;;0.80;;
22441;SDS011;11388;54.456;9.752;2022-07-05T19:27:44;5.68;;;1.17;;
22441;SDS011;11388;54.456;9.752;2022-07-05T19:30:11;4.35;;;1.00;;
22441;SDS011;11388;54.456;9.752;2022-07-05T19:32:37;5.95;;;1.13;;
22441;SDS011;11388;54.456;9.752;2022-07-05T19:35:03;6.85;;;1.15;;
22441;SDS011;11388;54.456;9.752;2022-07-05T19:37:29;5.78;;;1.23;;
22441;SDS011;11388;54.456;9.752;2022-07-05T19:39:55;4.68;;;1.17;;
22441;SDS011;11388;54.456;9.752;2022-07-05T19:42:21;5.65;;;1.20;;
22441;SDS011;11388;54.456;9.752;2022-07-05T19:44:47;4.97;;;1.42;;
22441;SDS011;11388;54.456;9.752;2022-07-05T19:47:16;2.85;;;0.77;;
22441;SDS011;11388;54.456;9.752;2022-07-05T19:49:42;4.95;;;1.20;;
22441;SDS011;11388;54.456;9.752;2022-07-05T19:52:11;5.03;;;1.15;;
22441;SDS011;11388;54.456;9.752;2022-07-05T23:08:45;5.13;;;1.20;;
